Time;durP1;ratioP1;P1;durP2;ratioP2;P2;SDS_P1;SDS_P2;PMS_P1;PMS_P2;Temp;Humidity;BMP_temperature;BMP_pressure;BME280_temperature;BME280_humidity;BME280_pressure;Samples;Min_cycle;Max_cycle;Signal;HPM_P1;HPM_P2
2022/03/29 00:01:27;;;;;;;11.30;8.80;;;;;;;;;;5051876;28;20233;-84
2022/03/29 00:03:54;;;;;;;14.43;8.93;;;;;;;;;;5053715;28;20210;-85
2022/03/29 00:06:21;;;;;;;14.53;10.80;;;;;;;;;;5055815;28;20264;-84
2022/03/29 00:08:48;;;;;;;13.07;9.93;;;;;;;;;;5056280;28;20234;-84
2022/03/29 00:11:17;;;;;;;14.50;9.43;;;;;;;;;;5055784;28;20225;-84
2022/03/29 00:13:44;;;;;;;13.60;9.43;;;;;;;;;;5056659;28;20241;-84
2022/03/29 00:16:11;;;;;;;13.97;10.07;;;;;;;;;;5055933;28;20238;-84
2022/03/29 00:18:39;;;;;;;14.53;9.13;;;;;;;;;;5056080;28;20213;-84
2022/03/29 00:21:06;;;;;;;16.40;10.13;;;;;;;;;;5056036;28;20229;-83
2022/03/29 00:23:33;;;;;;;13.73;9.07;;;;;;;;;;5056284;28;20217;-84
2022/03/29 00:26:00;;;;;;;16.47;10.03;;;;;;;;;;5055619;28;20253;-82
2022/03/29 00:28:27;;;;;;;13.90;9.50;;;;;;;;;;5055877;28;20577;-84
2022/03/29 00:30:55;;;;;;;14.27;10.00;;;;;;;;;;5055439;28;20236;-84
2022/03/29 00:33:22;;;;;;;14.77;9.77;;;;;;;;;;5055729;28;20659;-84
2022/03/29 00:35:51;;;;;;;11.97;9.23;;;;;;;;;;5055389;28;20320;-84
2022/03/29 00:38:19;;;;;;;11.80;9.33;;;;;;;;;;5055686;28;20198;-84
2022/03/29 00:40:46;;;;;;;14.87;9.17;;;;;;;;;;5055160;28;20241;-84
2022/03/29 00:43:13;;;;;;;11.73;9.20;;;;;;;;;;5056045;28;20353;-84
2022/03/29 00:45:40;;;;;;;14.33;9.50;;;;;;;;;;5054993;28;20238;-84
2022/03/29 00:48:08;;;;;;;13.10;10.03;;;;;;;;;;5055758;28;20221;-82
2022/03/29 00:50:35;;;;;;;13.27;9.70;;;;;;;;;;5054973;28;20237;-84
2022/03/29 00:53:04;;;;;;;18.10;10.17;;;;;;;;;;5055603;28;20260;-84
2022/03/29 00:55:31;;;;;;;13.57;9.37;;;;;;;;;;5055147;28;20237;-84
2022/03/29 00:57:59;;;;;;;13.57;9.50;;;;;;;;;;5054636;28;20202;-84
2022/03/29 01:00:27;;;;;;;15.67;10.53;;;;;;;;;;5054778;28;20258;-84
2022/03/29 01:02:54;;;;;;;13.37;10.07;;;;;;;;;;5054741;28;20210;-84
2022/03/29 01:05:21;;;;;;;19.70;9.70;;;;;;;;;;5054770;28;20229;-84
2022/03/29 01:07:48;;;;;;;15.77;9.20;;;;;;;;;;5052141;28;20206;-84
2022/03/29 01:10:17;;;;;;;13.43;9.77;;;;;;;;;;5067897;28;20197;-84
2022/03/29 01:12:44;;;;;;;11.63;9.43;;;;;;;;;;5055821;28;20235;-84
2022/03/29 01:15:11;;;;;;;12.67;9.13;;;;;;;;;;5057362;28;20232;-85
2022/03/29 01:17:41;;;;;;;11.50;9.03;;;;;;;;;;5056838;28;20252;-85
2022/03/29 01:20:10;;;;;;;13.93;9.73;;;;;;;;;;5055105;28;20216;-85
2022/03/29 01:22:40;;;;;;;13.67;8.60;;;;;;;;;;5055620;28;20242;-85
2022/03/29 01:25:08;;;;;;;13.97;8.43;;;;;;;;;;5055769;28;20260;-86
2022/03/29 01:27:35;;;;;;;14.87;9.50;;;;;;;;;;5036184;28;20199;-85
2022/03/29 01:30:03;;;;;;;13.40;9.43;;;;;;;;;;5046566;28;20202;-85
2022/03/29 01:32:31;;;;;;;13.70;9.17;;;;;;;;;;5057114;28;20635;-86
2022/03/29 01:34:58;;;;;;;11.80;8.90;;;;;;;;;;5056223;28;20226;-85
2022/03/29 01:37:26;;;;;;;16.10;10.10;;;;;;;;;;5069266;28;20234;-83
2022/03/29 01:39:56;;;;;;;15.37;9.63;;;;;;;;;;5080952;28;20183;-80
2022/03/29 01:42:23;;;;;;;15.73;10.67;;;;;;;;;;5073045;28;20226;-84
2022/03/29 01:44:50;;;;;;;17.60;10.10;;;;;;;;;;5055452;28;20634;-85
2022/03/29 01:47:20;;;;;;;17.00;10.20;;;;;;;;;;5054999;28;20241;-84
2022/03/29 01:49:47;;;;;;;12.23;9.50;;;;;;;;;;5055709;28;20206;-85
2022/03/29 01:52:15;;;;;;;20.23;9.90;;;;;;;;;;5055027;28;20734;-85
2022/03/29 01:54:42;;;;;;;14.17;9.57;;;;;;;;;;5055110;28;20225;-84
2022/03/29 01:57:10;;;;;;;13.93;9.40;;;;;;;;;;5034837;28;20238;-85
2022/03/29 02:02:23;;;;;;;13.57;10.00;;;;;;;;;;5054936;28;20232;-85
2022/03/29 02:04:50;;;;;;;11.70;8.40;;;;;;;;;;5055392;28;20221;-85
2022/03/29 02:07:18;;;;;;;12.30;8.60;;;;;;;;;;5054399;28;20234;-85
2022/03/29 02:09:45;;;;;;;13.00;8.13;;;;;;;;;;5055215;28;20297;-85
2022/03/29 02:12:14;;;;;;;13.43;8.57;;;;;;;;;;5054633;28;20258;-85
2022/03/29 02:14:41;;;;;;;13.00;8.80;;;;;;;;;;5054360;28;20225;-85
2022/03/29 02:17:09;;;;;;;12.33;8.60;;;;;;;;;;5053292;28;20248;-85
2022/03/29 02:19:36;;;;;;;14.13;9.27;;;;;;;;;;5054298;28;20206;-85
2022/03/29 02:22:03;;;;;;;12.97;8.83;;;;;;;;;;5053525;28;20245;-85
2022/03/29 02:24:30;;;;;;;13.80;9.60;;;;;;;;;;5054056;28;20230;-85
2022/03/29 02:26:57;;;;;;;15.03;9.23;;;;;;;;;;5052180;28;20229;-84
2022/03/29 02:29:25;;;;;;;12.43;9.07;;;;;;;;;;5054049;28;20213;-85
2022/03/29 02:31:52;;;;;;;12.20;8.90;;;;;;;;;;5053377;28;20234;-83
2022/03/29 02:34:19;;;;;;;14.70;9.27;;;;;;;;;;5053513;28;20222;-85
2022/03/29 02:36:46;;;;;;;11.93;8.47;;;;;;;;;;5052687;28;20603;-83
2022/03/29 02:39:13;;;;;;;12.87;9.33;;;;;;;;;;5053513;28;20210;-85
2022/03/29 02:41:40;;;;;;;13.13;9.40;;;;;;;;;;5053153;28;20232;-80
2022/03/29 02:44:07;;;;;;;11.87;9.10;;;;;;;;;;5053136;28;20202;-82
2022/03/29 02:46:36;;;;;;;12.70;8.97;;;;;;;;;;5052657;28;20246;-83
2022/03/29 02:49:03;;;;;;;12.40;8.93;;;;;;;;;;5053002;28;20203;-81
2022/03/29 02:51:31;;;;;;;14.00;9.73;;;;;;;;;;5052419;28;20230;-83
2022/03/29 02:53:58;;;;;;;15.83;10.23;;;;;;;;;;5052997;28;20685;-82
2022/03/29 02:56:25;;;;;;;12.97;10.10;;;;;;;;;;5052293;28;20608;-81
2022/03/29 02:58:52;;;;;;;14.53;9.33;;;;;;;;;;5052953;28;20205;-82
2022/03/29 03:01:19;;;;;;;14.83;9.70;;;;;;;;;;5052460;28;20307;-82
2022/03/29 03:03:47;;;;;;;13.10;9.40;;;;;;;;;;5035707;28;20202;-83
2022/03/29 03:06:14;;;;;;;12.60;8.80;;;;;;;;;;5032443;28;20289;-85
2022/03/29 03:08:42;;;;;;;14.47;8.43;;;;;;;;;;5049554;28;20198;-83
2022/03/29 03:11:09;;;;;;;13.73;9.27;;;;;;;;;;5052480;28;20244;-85
2022/03/29 03:13:36;;;;;;;11.23;8.03;;;;;;;;;;5052605;28;20658;-85
2022/03/29 03:16:03;;;;;;;12.30;8.43;;;;;;;;;;5052208;28;20284;-85
2022/03/29 03:18:30;;;;;;;16.10;9.87;;;;;;;;;;5052611;28;20198;-84
2022/03/29 03:20:58;;;;;;;14.03;9.87;;;;;;;;;;5052155;28;20234;-84
2022/03/29 03:23:26;;;;;;;12.83;9.43;;;;;;;;;;5052636;28;20248;-85
2022/03/29 03:25:54;;;;;;;12.33;9.07;;;;;;;;;;5052436;28;20244;-85
2022/03/29 03:28:21;;;;;;;15.67;9.57;;;;;;;;;;5052687;28;20669;-84
2022/03/29 03:30:48;;;;;;;12.60;9.47;;;;;;;;;;5066904;28;20230;-84
2022/03/29 03:33:15;;;;;;;12.70;9.60;;;;;;;;;;5054442;28;20252;-84
2022/03/29 03:35:42;;;;;;;15.13;9.03;;;;;;;;;;5053452;28;20257;-85
2022/03/29 03:38:10;;;;;;;14.50;9.47;;;;;;;;;;5053640;28;20210;-84
2022/03/29 03:40:37;;;;;;;14.73;9.93;;;;;;;;;;5053489;28;20234;-84
2022/03/29 03:43:04;;;;;;;17.53;10.53;;;;;;;;;;5053939;28;20198;-83
2022/03/29 03:45:32;;;;;;;14.57;9.73;;;;;;;;;;5052136;28;20241;-85
2022/03/29 03:47:59;;;;;;;12.40;9.53;;;;;;;;;;5053473;28;20213;-84
2022/03/29 03:50:26;;;;;;;20.77;9.80;;;;;;;;;;5053115;28;20238;-85
2022/03/29 03:52:54;;;;;;;15.10;9.83;;;;;;;;;;5053247;28;20210;-84
2022/03/29 03:55:23;;;;;;;19.03;10.73;;;;;;;;;;5052640;28;20229;-84
2022/03/29 03:57:50;;;;;;;12.93;9.63;;;;;;;;;;5052923;28;20206;-85
2022/03/29 04:00:21;;;;;;;14.20;9.30;;;;;;;;;;5056715;28;20249;-83
2022/03/29 04:02:49;;;;;;;14.00;9.70;;;;;;;;;;5055507;28;20194;-84
2022/03/29 04:05:16;;;;;;;13.23;9.93;;;;;;;;;;5052515;28;20222;-85
2022/03/29 04:07:43;;;;;;;13.10;8.97;;;;;;;;;;5052878;28;20561;-84
2022/03/29 04:10:11;;;;;;;18.00;10.03;;;;;;;;;;5052444;28;20213;-83
2022/03/29 04:12:39;;;;;;;11.27;8.90;;;;;;;;;;5050617;28;20213;-84
2022/03/29 04:15:08;;;;;;;11.47;8.70;;;;;;;;;;5050273;28;20231;-84
2022/03/29 04:17:35;;;;;;;13.73;9.63;;;;;;;;;;5048673;28;20198;-84
2022/03/29 04:20:02;;;;;;;15.03;9.13;;;;;;;;;;5052535;28;20202;-84
2022/03/29 04:22:29;;;;;;;13.77;9.87;;;;;;;;;;5033202;28;20238;-82
2022/03/29 04:24:56;;;;;;;13.40;9.43;;;;;;;;;;5037677;28;20221;-84
2022/03/29 04:27:23;;;;;;;14.27;9.73;;;;;;;;;;5052678;28;20226;-85
2022/03/29 04:29:52;;;;;;;15.83;9.40;;;;;;;;;;5052514;28;20616;-85
2022/03/29 04:32:19;;;;;;;14.67;10.27;;;;;;;;;;5051967;28;20242;-85
2022/03/29 04:34:47;;;;;;;15.63;10.23;;;;;;;;;;5052779;28;20230;-84
2022/03/29 04:37:14;;;;;;;16.67;10.43;;;;;;;;;;5051631;28;20226;-84
2022/03/29 04:39:41;;;;;;;14.50;8.90;;;;;;;;;;5050955;28;20201;-86
2022/03/29 04:42:09;;;;;;;14.83;8.73;;;;;;;;;;5051162;28;20698;-85
2022/03/29 04:44:36;;;;;;;15.10;9.20;;;;;;;;;;5051722;28;20238;-85
2022/03/29 04:47:05;;;;;;;11.17;7.87;;;;;;;;;;5073644;22;20230;-79
2022/03/29 04:49:32;;;;;;;14.70;9.20;;;;;;;;;;5053706;28;20293;-79
2022/03/29 04:52:00;;;;;;;15.77;8.90;;;;;;;;;;5061608;28;20233;-78
2022/03/29 04:54:27;;;;;;;12.60;9.40;;;;;;;;;;5048369;28;20224;-79
2022/03/29 04:56:54;;;;;;;16.47;9.87;;;;;;;;;;5040880;28;20254;-79
2022/03/29 04:59:21;;;;;;;16.40;9.30;;;;;;;;;;5025599;28;20203;-79
2022/03/29 05:01:48;;;;;;;14.47;10.30;;;;;;;;;;5048907;28;20713;-79
2022/03/29 05:04:17;;;;;;;16.17;10.27;;;;;;;;;;5055083;28;20202;-79
2022/03/29 05:06:44;;;;;;;17.00;9.80;;;;;;;;;;5029843;28;20288;-79
2022/03/29 05:09:11;;;;;;;14.77;10.10;;;;;;;;;;5037327;28;20545;-82
2022/03/29 05:11:38;;;;;;;15.73;9.77;;;;;;;;;;5035609;28;20262;-79
2022/03/29 05:14:05;;;;;;;13.30;9.77;;;;;;;;;;5037387;28;20203;-78
2022/03/29 05:16:32;;;;;;;18.50;10.63;;;;;;;;;;5033778;28;20234;-78
2022/03/29 05:18:59;;;;;;;18.13;11.17;;;;;;;;;;5041541;28;20229;-79
2022/03/29 05:21:30;;;;;;;13.17;9.07;;;;;;;;;;5035949;28;20631;-79
2022/03/29 05:23:57;;;;;;;20.27;10.57;;;;;;;;;;5034727;28;20233;-79
2022/03/29 05:26:24;;;;;;;20.60;10.23;;;;;;;;;;5034009;28;20230;-79
2022/03/29 05:28:51;;;;;;;18.17;10.70;;;;;;;;;;5034632;28;20276;-79
2022/03/29 05:31:18;;;;;;;17.80;10.47;;;;;;;;;;5034345;28;20238;-79
2022/03/29 05:33:45;;;;;;;16.70;11.90;;;;;;;;;;5035080;28;20777;-79
2022/03/29 05:36:13;;;;;;;15.90;10.80;;;;;;;;;;5034587;28;20238;-79
2022/03/29 05:38:47;;;;;;;17.53;11.33;;;;;;;;;;5035272;28;20211;-79
2022/03/29 05:41:15;;;;;;;18.70;11.97;;;;;;;;;;5031515;28;20702;-79
2022/03/29 05:43:42;;;;;;;16.93;11.00;;;;;;;;;;5030980;28;20210;-78
2022/03/29 05:48:56;;;;;;;15.37;11.07;;;;;;;;;;5054720;28;20235;-78
2022/03/29 05:51:23;;;;;;;17.90;11.37;;;;;;;;;;5054969;28;20237;-79
2022/03/29 05:53:52;;;;;;;16.67;11.13;;;;;;;;;;5058617;28;20225;-79
2022/03/29 05:56:20;;;;;;;15.27;10.73;;;;;;;;;;5058907;28;20245;-79
2022/03/29 05:58:47;;;;;;;17.57;10.70;;;;;;;;;;5059817;28;20198;-79
2022/03/29 06:01:14;;;;;;;15.13;11.47;;;;;;;;;;5059586;28;20245;-79
2022/03/29 06:03:41;;;;;;;15.57;10.83;;;;;;;;;;5060113;28;20210;-78
2022/03/29 06:06:08;;;;;;;14.70;10.93;;;;;;;;;;5059653;28;20238;-79
2022/03/29 06:08:36;;;;;;;21.77;11.37;;;;;;;;;;5059816;28;20210;-78
2022/03/29 06:11:07;;;;;;;19.07;11.83;;;;;;;;;;5052888;28;20252;-78
2022/03/29 06:13:34;;;;;;;20.40;10.53;;;;;;;;;;5054257;28;20194;-79
2022/03/29 06:16:02;;;;;;;17.73;12.00;;;;;;;;;;5052637;28;20229;-78
2022/03/29 06:18:30;;;;;;;18.17;11.27;;;;;;;;;;5052120;28;20355;-78
2022/03/29 06:20:58;;;;;;;19.07;11.90;;;;;;;;;;5053173;28;20233;-78
2022/03/29 06:23:25;;;;;;;18.27;11.17;;;;;;;;;;5054282;28;20206;-78
2022/03/29 06:25:54;;;;;;;24.97;12.83;;;;;;;;;;5050656;28;21351;-78
2022/03/29 06:28:22;;;;;;;22.10;12.90;;;;;;;;;;5050023;28;20209;-78
2022/03/29 06:30:49;;;;;;;27.83;13.40;;;;;;;;;;5052274;28;20292;-78
2022/03/29 06:33:16;;;;;;;26.00;13.80;;;;;;;;;;5053217;28;20213;-78
2022/03/29 06:35:45;;;;;;;26.70;12.90;;;;;;;;;;5052445;28;20240;-78
2022/03/29 06:38:12;;;;;;;31.00;17.83;;;;;;;;;;5053209;28;20233;-78
2022/03/29 06:40:39;;;;;;;28.80;15.67;;;;;;;;;;5052334;28;20238;-78
2022/03/29 06:43:06;;;;;;;29.90;15.70;;;;;;;;;;5052899;28;20190;-78
2022/03/29 06:45:35;;;;;;;31.37;13.77;;;;;;;;;;5051810;28;20299;-78
2022/03/29 06:48:02;;;;;;;26.07;12.73;;;;;;;;;;5052267;28;20579;-78
2022/03/29 06:50:29;;;;;;;32.20;16.63;;;;;;;;;;5052026;28;20222;-78
2022/03/29 06:52:56;;;;;;;32.50;15.87;;;;;;;;;;5052627;28;20622;-78
2022/03/29 06:55:23;;;;;;;30.77;17.00;;;;;;;;;;5051905;28;20237;-78
2022/03/29 06:57:50;;;;;;;28.37;15.67;;;;;;;;;;5052198;28;20284;-78
2022/03/29 07:00:17;;;;;;;27.97;15.73;;;;;;;;;;5051657;28;20194;-78
2022/03/29 07:02:46;;;;;;;25.23;15.03;;;;;;;;;;5053648;28;20198;-78
2022/03/29 07:05:14;;;;;;;25.50;15.80;;;;;;;;;;5051546;28;20202;-78
2022/03/29 07:07:41;;;;;;;34.43;15.50;;;;;;;;;;5051502;28;20839;-78
2022/03/29 07:12:54;;;;;;;25.33;15.30;;;;;;;;;;5032793;28;20198;-78
2022/03/29 07:15:21;;;;;;;31.17;17.13;;;;;;;;;;5034220;28;20685;-78
2022/03/29 07:17:50;;;;;;;35.50;15.73;;;;;;;;;;5052022;28;20252;-78
2022/03/29 07:20:19;;;;;;;28.77;17.33;;;;;;;;;;5052212;28;20214;-78
2022/03/29 07:22:47;;;;;;;33.73;18.53;;;;;;;;;;5052031;28;20190;-78
2022/03/29 07:25:15;;;;;;;28.77;17.80;;;;;;;;;;5051409;28;20217;-78
2022/03/29 07:27:42;;;;;;;35.50;18.03;;;;;;;;;;5051232;28;20226;-78
2022/03/29 07:30:10;;;;;;;26.47;17.00;;;;;;;;;;5051639;28;20217;-78
2022/03/29 07:32:43;;;;;;;28.43;17.07;;;;;;;;;;5051757;28;20210;-77
2022/03/29 07:35:11;;;;;;;29.23;16.93;;;;;;;;;;5034564;28;20203;-78
2022/03/29 07:37:39;;;;;;;30.90;16.97;;;;;;;;;;5031347;28;20690;-78
2022/03/29 07:40:08;;;;;;;37.53;17.33;;;;;;;;;;5031529;28;20234;-78
2022/03/29 07:42:35;;;;;;;27.93;17.03;;;;;;;;;;5031638;28;20210;-78
2022/03/29 07:45:03;;;;;;;33.50;17.43;;;;;;;;;;5030827;28;20304;-78
2022/03/29 07:47:30;;;;;;;31.43;16.97;;;;;;;;;;5031280;28;20591;-78
2022/03/29 07:49:57;;;;;;;26.77;16.93;;;;;;;;;;5031973;28;20298;-78
2022/03/29 07:52:26;;;;;;;27.37;16.67;;;;;;;;;;5031465;28;20239;-78
2022/03/29 07:54:53;;;;;;;29.47;16.73;;;;;;;;;;5031504;28;20213;-78
2022/03/29 07:57:20;;;;;;;31.47;16.43;;;;;;;;;;5030949;28;20241;-78
2022/03/29 07:59:47;;;;;;;30.73;15.87;;;;;;;;;;5031896;28;20209;-78
2022/03/29 08:02:14;;;;;;;31.33;17.10;;;;;;;;;;5031218;28;20223;-78
2022/03/29 08:04:41;;;;;;;29.10;16.20;;;;;;;;;;5032843;28;20237;-79
2022/03/29 08:07:08;;;;;;;31.43;16.07;;;;;;;;;;5034121;28;20230;-79
2022/03/29 08:09:37;;;;;;;27.10;16.27;;;;;;;;;;5032987;28;20611;-78
2022/03/29 08:12:04;;;;;;;30.87;16.37;;;;;;;;;;5032207;28;20737;-79
2022/03/29 08:14:31;;;;;;;25.40;15.50;;;;;;;;;;5032159;28;20203;-79
2022/03/29 08:16:59;;;;;;;26.10;16.53;;;;;;;;;;5031096;28;20234;-79
2022/03/29 08:19:26;;;;;;;30.47;15.90;;;;;;;;;;5032246;28;20207;-79
2022/03/29 08:21:53;;;;;;;28.23;16.07;;;;;;;;;;5031172;28;20246;-79
2022/03/29 08:24:20;;;;;;;27.70;15.87;;;;;;;;;;5032288;28;20213;-79
2022/03/29 08:26:50;;;;;;;27.27;17.13;;;;;;;;;;5034994;28;20238;-79
2022/03/29 08:29:17;;;;;;;25.13;15.93;;;;;;;;;;5035381;28;20203;-79
2022/03/29 08:31:44;;;;;;;24.73;15.50;;;;;;;;;;5034873;28;20249;-79
2022/03/29 08:34:11;;;;;;;29.37;16.00;;;;;;;;;;5035272;28;20229;-79
2022/03/29 08:36:39;;;;;;;30.20;16.33;;;;;;;;;;5034376;28;20300;-79
2022/03/29 08:39:06;;;;;;;27.37;16.07;;;;;;;;;;5035763;28;20675;-78
2022/03/29 08:41:37;;;;;;;27.97;17.23;;;;;;;;;;5034584;28;20242;-78
2022/03/29 08:44:06;;;;;;;26.43;15.87;;;;;;;;;;5035100;28;20297;-78
2022/03/29 08:46:35;;;;;;;29.47;15.93;;;;;;;;;;5033875;28;20245;-78
2022/03/29 08:49:03;;;;;;;25.43;14.77;;;;;;;;;;5035055;28;20211;-78
2022/03/29 08:51:31;;;;;;;29.70;15.20;;;;;;;;;;5034282;28;20317;-78
2022/03/29 08:53:58;;;;;;;29.23;15.23;;;;;;;;;;5042363;28;20714;-78
2022/03/29 08:56:25;;;;;;;26.20;15.73;;;;;;;;;;5053731;28;20276;-78
2022/03/29 08:58:53;;;;;;;24.83;14.80;;;;;;;;;;5035506;28;20286;-79
2022/03/29 09:01:22;;;;;;;23.47;15.30;;;;;;;;;;5014697;28;20231;-79
2022/03/29 09:04:04;;;;;;;28.23;14.67;;;;;;;;;;5015319;28;20265;-79
2022/03/29 09:06:31;;;;;;;28.40;15.73;;;;;;;;;;5014004;28;20313;-79
2022/03/29 09:08:58;;;;;;;26.47;15.53;;;;;;;;;;5015227;28;20223;-79
2022/03/29 09:11:25;;;;;;;24.10;14.50;;;;;;;;;;5014840;28;20235;-79
2022/03/29 09:14:02;;;;;;;22.93;14.80;;;;;;;;;;5014997;28;20634;-79
2022/03/29 09:16:31;;;;;;;22.77;15.07;;;;;;;;;;5032816;28;20257;-79
2022/03/29 09:18:58;;;;;;;30.10;15.93;;;;;;;;;;5034745;28;20234;-79
2022/03/29 09:21:25;;;;;;;25.80;15.67;;;;;;;;;;5034367;28;20301;-80
2022/03/29 09:24:06;;;;;;;26.73;15.40;;;;;;;;;;5034397;28;20833;-79
2022/03/29 09:26:34;;;;;;;26.47;14.60;;;;;;;;;;5033573;28;20265;-79
2022/03/29 09:29:01;;;;;;;25.20;15.13;;;;;;;;;;5034864;28;20205;-79
2022/03/29 09:31:28;;;;;;;25.67;14.93;;;;;;;;;;5034094;28;20265;-79
2022/03/29 09:34:10;;;;;;;26.73;15.40;;;;;;;;;;5034380;28;20207;-80
2022/03/29 09:36:43;;;;;;;21.90;14.23;;;;;;;;;;5033017;28;20245;-79
2022/03/29 09:39:10;;;;;;;26.50;14.80;;;;;;;;;;5034796;28;20680;-79
2022/03/29 09:41:41;;;;;;;23.93;14.37;;;;;;;;;;5034173;28;20238;-79
2022/03/29 09:44:09;;;;;;;30.80;14.73;;;;;;;;;;5034422;28;20637;-79
2022/03/29 09:46:51;;;;;;;29.30;15.50;;;;;;;;;;5033041;28;20246;-79
2022/03/29 09:49:19;;;;;;;24.47;14.23;;;;;;;;;;5034278;28;20203;-79
2022/03/29 09:51:48;;;;;;;26.67;15.43;;;;;;;;;;5034024;28;20239;-79
2022/03/29 09:54:15;;;;;;;26.17;15.20;;;;;;;;;;5038019;28;20271;-80
2022/03/29 09:56:50;;;;;;;25.33;14.10;;;;;;;;;;5026167;28;20247;-80
2022/03/29 09:59:18;;;;;;;23.70;14.43;;;;;;;;;;5034009;28;20264;-79
2022/03/29 10:01:51;;;;;;;24.40;15.27;;;;;;;;;;5035647;28;20304;-79
2022/03/29 10:04:18;;;;;;;24.57;15.60;;;;;;;;;;5054305;28;20209;-79
2022/03/29 10:06:46;;;;;;;22.63;14.23;;;;;;;;;;5053068;28;20529;-78
2022/03/29 10:09:26;;;;;;;24.63;15.30;;;;;;;;;;5053798;28;20202;-78
2022/03/29 10:11:55;;;;;;;27.07;14.60;;;;;;;;;;5052893;28;20771;-78
2022/03/29 10:14:25;;;;;;;25.13;14.47;;;;;;;;;;5053546;28;20689;-78
2022/03/29 10:16:53;;;;;;;23.97;14.70;;;;;;;;;;5053246;28;20249;-78
2022/03/29 10:19:20;;;;;;;24.03;14.57;;;;;;;;;;5053399;28;20230;-78
2022/03/29 10:21:47;;;;;;;24.87;14.57;;;;;;;;;;5052555;28;20341;-78
2022/03/29 10:24:16;;;;;;;23.63;14.23;;;;;;;;;;5053423;28;20209;-78
2022/03/29 10:26:44;;;;;;;23.50;14.60;;;;;;;;;;5053929;28;20245;-78
2022/03/29 10:29:11;;;;;;;21.10;13.63;;;;;;;;;;5053979;28;20234;-79
2022/03/29 10:31:41;;;;;;;20.73;13.53;;;;;;;;;;5053383;28;20240;-79
2022/03/29 10:34:16;;;;;;;22.77;13.87;;;;;;;;;;5053953;28;20201;-79
2022/03/29 10:37:16;;;;;;;21.53;13.33;;;;;;;;;;5052840;28;20234;-79
2022/03/29 10:39:46;;;;;;;24.10;14.67;;;;;;;;;;5053697;28;20187;-79
2022/03/29 10:42:33;;;;;;;24.20;14.77;;;;;;;;;;5052912;28;20583;-79
2022/03/29 10:45:09;;;;;;;25.80;14.53;;;;;;;;;;5053037;28;20198;-79
2022/03/29 10:47:36;;;;;;;21.10;13.80;;;;;;;;;;5054274;28;20259;-79
2022/03/29 10:50:05;;;;;;;22.83;13.57;;;;;;;;;;5058563;28;20206;-79
2022/03/29 10:52:38;;;;;;;22.53;13.77;;;;;;;;;;5058750;28;20292;-80
2022/03/29 10:55:17;;;;;;;18.52;12.45;;;;;;;;;;5058469;28;20232;-80
2022/03/29 10:57:59;;;;;;;20.35;14.43;;;;;;;;;;5057230;28;20241;-79
2022/03/29 11:00:31;;;;;;;19.98;12.18;;;;;;;;;;5058238;28;20236;-79
2022/03/29 11:03:14;;;;;;;18.15;12.02;;;;;;;;;;5058364;28;20205;-80
2022/03/29 11:06:00;;;;;;;22.63;12.60;;;;;;;;;;5058109;28;20458;-80
2022/03/29 11:08:31;;;;;;;17.58;11.75;;;;;;;;;;5058229;28;20212;-80
2022/03/29 11:11:00;;;;;;;19.73;12.63;;;;;;;;;;5057696;28;20644;-80
2022/03/29 11:13:27;;;;;;;20.77;12.63;;;;;;;;;;5058814;28;20217;-80
2022/03/29 11:15:57;;;;;;;19.00;12.23;;;;;;;;;;5057575;28;20229;-80
2022/03/29 11:18:38;;;;;;;18.45;11.57;;;;;;;;;;5058137;28;20229;-79
2022/03/29 11:21:06;;;;;;;18.02;11.77;;;;;;;;;;5057625;28;20341;-80
2022/03/29 11:23:34;;;;;;;17.67;13.00;;;;;;;;;;5057701;28;20210;-79
2022/03/29 11:26:08;;;;;;;20.83;11.65;;;;;;;;;;5057233;28;20267;-80
2022/03/29 11:28:36;;;;;;;19.08;11.70;;;;;;;;;;5058291;28;20236;-80
2022/03/29 11:31:03;;;;;;;19.98;12.38;;;;;;;;;;5057436;28;20297;-79
2022/03/29 11:33:34;;;;;;;19.83;12.85;;;;;;;;;;5057406;28;20737;-79
2022/03/29 11:36:02;;;;;;;18.02;12.23;;;;;;;;;;5057268;28;20233;-80
2022/03/29 11:38:33;;;;;;;17.70;11.57;;;;;;;;;;5057298;28;20225;-79
2022/03/29 11:41:00;;;;;;;20.55;12.38;;;;;;;;;;5050587;28;20280;-80
2022/03/29 11:43:28;;;;;;;16.38;11.63;;;;;;;;;;5057285;28;20612;-79
2022/03/29 11:45:56;;;;;;;20.13;12.45;;;;;;;;;;5060472;28;20291;-79
2022/03/29 11:48:24;;;;;;;16.90;11.98;;;;;;;;;;5069553;28;20220;-80
2022/03/29 11:50:52;;;;;;;20.20;12.18;;;;;;;;;;5075038;28;20260;-80
2022/03/29 11:53:20;;;;;;;21.90;12.40;;;;;;;;;;5078736;28;20197;-80
2022/03/29 11:55:55;;;;;;;18.70;11.93;;;;;;;;;;5076980;28;20232;-80
2022/03/29 11:58:22;;;;;;;20.08;12.32;;;;;;;;;;5078565;28;20267;-80
2022/03/29 12:00:51;;;;;;;17.90;11.60;;;;;;;;;;5080915;28;20252;-80
2022/03/29 12:03:27;;;;;;;18.45;11.52;;;;;;;;;;5081928;28;20199;-80
2022/03/29 12:06:03;;;;;;;15.80;10.98;;;;;;;;;;5078181;28;20304;-80
2022/03/29 12:08:43;;;;;;;16.85;12.27;;;;;;;;;;5073307;28;20205;-79
2022/03/29 12:11:10;;;;;;;17.75;11.35;;;;;;;;;;5079452;28;20232;-79
2022/03/29 12:13:37;;;;;;;20.33;11.80;;;;;;;;;;5079472;28;20205;-79
2022/03/29 12:16:17;;;;;;;17.63;12.20;;;;;;;;;;5080355;28;20233;-80
2022/03/29 12:18:45;;;;;;;18.42;12.45;;;;;;;;;;5081339;28;20743;-80
2022/03/29 12:21:13;;;;;;;18.77;12.52;;;;;;;;;;5081313;28;20239;-80
2022/03/29 12:23:42;;;;;;;18.80;11.77;;;;;;;;;;5081776;28;20209;-80
2022/03/29 12:26:09;;;;;;;18.02;12.02;;;;;;;;;;5081442;28;20318;-80
2022/03/29 12:28:37;;;;;;;20.50;12.75;;;;;;;;;;5081079;28;20205;-80
2022/03/29 12:31:04;;;;;;;19.55;12.02;;;;;;;;;;5080812;28;20328;-80
2022/03/29 12:33:35;;;;;;;17.95;11.90;;;;;;;;;;5081352;28;20205;-80
2022/03/29 12:36:06;;;;;;;18.50;12.27;;;;;;;;;;5080620;28;20233;-80
2022/03/29 12:38:40;;;;;;;18.73;12.52;;;;;;;;;;5081056;28;20229;-80
2022/03/29 12:41:08;;;;;;;18.70;11.40;;;;;;;;;;5080211;28;20237;-80
2022/03/29 12:43:35;;;;;;;19.63;11.85;;;;;;;;;;5081231;28;20206;-80
2022/03/29 12:46:03;;;;;;;19.95;12.00;;;;;;;;;;5081210;28;20257;-79
2022/03/29 12:48:30;;;;;;;19.38;11.85;;;;;;;;;;5080407;28;20206;-81
2022/03/29 12:51:04;;;;;;;18.08;12.52;;;;;;;;;;5080413;28;20586;-80
2022/03/29 12:53:31;;;;;;;20.77;12.75;;;;;;;;;;5077832;28;20293;-80
2022/03/29 12:56:00;;;;;;;19.77;13.02;;;;;;;;;;5079271;28;20244;-81
2022/03/29 12:58:31;;;;;;;19.63;12.55;;;;;;;;;;5076308;28;20221;-80
2022/03/29 13:01:01;;;;;;;16.38;11.75;;;;;;;;;;5084177;28;20229;-80
2022/03/29 13:03:28;;;;;;;19.20;13.05;;;;;;;;;;5081615;28;20738;-80
2022/03/29 13:05:56;;;;;;;20.58;12.60;;;;;;;;;;5085261;28;20236;-80
2022/03/29 13:08:24;;;;;;;17.50;12.13;;;;;;;;;;5088268;28;20201;-80
2022/03/29 13:10:51;;;;;;;15.73;11.65;;;;;;;;;;5086997;28;20229;-81
2022/03/29 13:13:24;;;;;;;21.13;13.43;;;;;;;;;;5089898;28;20201;-80
2022/03/29 13:15:54;;;;;;;18.73;12.10;;;;;;;;;;5088232;28;20229;-81
2022/03/29 13:18:23;;;;;;;22.52;12.20;;;;;;;;;;5088835;28;20232;-81
2022/03/29 13:20:50;;;;;;;20.83;12.60;;;;;;;;;;5088367;28;20221;-80
2022/03/29 13:23:30;;;;;;;16.33;11.27;;;;;;;;;;5092755;28;20205;-81
2022/03/29 13:25:57;;;;;;;17.73;12.02;;;;;;;;;;5089503;28;20232;-80
2022/03/29 13:28:26;;;;;;;17.40;11.48;;;;;;;;;;5090472;28;20200;-80
2022/03/29 13:30:53;;;;;;;19.60;11.25;;;;;;;;;;5090575;28;20221;-81
2022/03/29 13:33:20;;;;;;;20.70;11.05;;;;;;;;;;5090371;28;20193;-80
2022/03/29 13:35:50;;;;;;;19.05;10.50;;;;;;;;;;5079695;28;20251;-81
2022/03/29 13:38:17;;;;;;;18.13;11.13;;;;;;;;;;5084539;28;20704;-81
2022/03/29 13:40:46;;;;;;;15.60;10.00;;;;;;;;;;5083852;28;20256;-80
2022/03/29 13:43:14;;;;;;;12.95;9.13;;;;;;;;;;5083670;28;20205;-80
2022/03/29 13:45:41;;;;;;;14.93;9.88;;;;;;;;;;5083186;28;20237;-80
2022/03/29 13:48:08;;;;;;;15.65;9.50;;;;;;;;;;5083158;28;20240;-80
2022/03/29 13:50:36;;;;;;;15.63;10.02;;;;;;;;;;5081495;28;20240;-80
2022/03/29 13:53:03;;;;;;;14.90;9.98;;;;;;;;;;5081852;28;20293;-80
2022/03/29 13:55:32;;;;;;;17.20;10.57;;;;;;;;;;5080898;28;20249;-80
2022/03/29 13:58:04;;;;;;;16.17;9.70;;;;;;;;;;5081671;28;20292;-80
2022/03/29 14:00:31;;;;;;;14.02;9.48;;;;;;;;;;5078080;28;20287;-80
2022/03/29 14:02:58;;;;;;;13.60;10.23;;;;;;;;;;5081422;28;20209;-80
2022/03/29 14:05:26;;;;;;;15.00;9.82;;;;;;;;;;5079107;28;20302;-80
2022/03/29 14:07:54;;;;;;;14.82;8.93;;;;;;;;;;5079497;28;20704;-80
2022/03/29 14:10:21;;;;;;;16.00;10.07;;;;;;;;;;5078492;28;20621;-80
2022/03/29 14:12:48;;;;;;;13.60;9.40;;;;;;;;;;5079239;28;20202;-80
2022/03/29 14:15:17;;;;;;;15.57;9.75;;;;;;;;;;5078090;28;20205;-80
2022/03/29 14:17:44;;;;;;;17.88;10.23;;;;;;;;;;5079540;28;20625;-80
2022/03/29 14:20:11;;;;;;;16.60;10.25;;;;;;;;;;5078485;28;20217;-80
2022/03/29 14:22:38;;;;;;;14.32;9.48;;;;;;;;;;5077646;28;20205;-80
2022/03/29 14:25:06;;;;;;;17.15;9.48;;;;;;;;;;5077625;28;20210;-80
2022/03/29 14:27:33;;;;;;;15.38;9.48;;;;;;;;;;5077976;28;20233;-80
2022/03/29 14:30:00;;;;;;;12.40;8.88;;;;;;;;;;5078010;28;20205;-79
2022/03/29 14:32:29;;;;;;;12.75;9.38;;;;;;;;;;5077721;28;20229;-79
2022/03/29 14:34:56;;;;;;;15.93;9.70;;;;;;;;;;5077667;28;20240;-81
2022/03/29 14:37:24;;;;;;;14.43;9.25;;;;;;;;;;5076749;28;20346;-79